createdAt,value
2022-12-12T17:01:45.987Z,37.25
2022-12-12T17:03:17.702Z,34.40
2022-12-12T17:04:49.544Z,35.40
2022-12-12T17:06:21.243Z,33.20
2022-12-12T17:07:53.116Z,35.20
2022-12-12T17:09:29.848Z,33.20
2022-12-12T17:11:10.385Z,35.20
2022-12-12T17:12:42.714Z,35.00
2022-12-12T17:14:22.578Z,35.40
2022-12-12T17:15:54.842Z,34.00
2022-12-12T17:17:26.642Z,37.80
2022-12-12T17:18:58.646Z,39.00
2022-12-12T17:20:37.670Z,34.40
2022-12-12T17:22:09.881Z,34.80
2022-12-12T17:23:41.567Z,28.40
2022-12-12T17:25:14.054Z,34.40
2022-12-12T17:26:45.743Z,36.40
2022-12-12T17:28:21.363Z,32.80
2022-12-12T17:29:53.220Z,31.80
2022-12-12T17:31:24.886Z,31.20
2022-12-12T17:34:45.905Z,34.80
2022-12-12T17:36:17.723Z,34.00
2022-12-12T17:37:52.038Z,34.60
2022-12-12T17:39:23.736Z,33.60
2022-12-12T17:40:58.133Z,32.20
2022-12-12T17:42:33.019Z,30.80
2022-12-12T17:44:05.115Z,32.40
2022-12-12T17:45:37.000Z,31.20
2022-12-12T17:47:08.791Z,30.80
2022-12-12T17:48:48.502Z,33.20
2022-12-12T17:50:20.430Z,32.80
2022-12-12T17:51:52.151Z,32.40
2022-12-12T17:53:23.909Z,37.00
2022-12-12T17:55:51.866Z,30.00
2022-12-12T17:56:48.555Z,33.00
2022-12-12T17:58:22.870Z,23.00
2022-12-12T17:59:58.550Z,33.20
2022-12-12T18:01:31.592Z,32.60
2022-12-12T18:03:03.785Z,32.40
2022-12-12T18:04:38.659Z,28.20
2022-12-12T18:06:11.121Z,26.40
2022-12-12T18:07:42.899Z,35.60
2022-12-12T18:09:14.713Z,34.40
2022-12-12T18:10:46.451Z,32.40
2022-12-12T18:12:18.457Z,33.60
2022-12-12T18:13:50.387Z,32.20
2022-12-12T18:15:22.196Z,35.40
2022-12-12T18:16:54.019Z,35.20
2022-12-12T18:18:26.417Z,33.80
2022-12-12T18:19:58.157Z,30.60
2022-12-12T18:23:22.780Z,33.80
2022-12-12T18:24:54.583Z,34.20
2022-12-12T18:26:27.071Z,40.40
2022-12-12T18:27:58.943Z,50.50
2022-12-12T18:29:31.063Z,61.25
2022-12-12T18:31:03.634Z,73.00
2022-12-12T18:32:35.303Z,97.50
2022-12-12T18:34:07.134Z,88.80
2022-12-12T18:35:38.839Z,123.75
2022-12-12T18:37:10.652Z,117.00
2022-12-12T18:38:47.418Z,110.75
2022-12-12T18:40:19.515Z,113.75
2022-12-12T18:41:52.106Z,126.75
2022-12-12T18:43:25.657Z,123.50
2022-12-12T18:44:57.358Z,129.25
2022-12-12T18:46:31.134Z,127.25
2022-12-12T18:48:02.858Z,136.25
2022-12-12T18:49:34.631Z,130.50
2022-12-12T18:51:07.557Z,132.50
2022-12-12T18:52:39.329Z,125.50
2022-12-12T18:54:15.005Z,135.00
2022-12-12T18:55:47.413Z,133.00
2022-12-12T18:57:19.280Z,130.25
2022-12-12T18:58:53.126Z,152.50
2022-12-12T19:00:25.059Z,163.75
2022-12-12T19:01:57.184Z,164.50
2022-12-12T19:03:28.861Z,162.00
2022-12-12T19:05:00.580Z,174.50
2022-12-12T19:06:36.436Z,174.75
2022-12-12T19:08:08.667Z,176.00
2022-12-12T19:09:40.894Z,161.25
2022-12-12T19:11:12.834Z,168.50
2022-12-12T19:12:44.676Z,166.75
2022-12-12T19:14:16.458Z,169.00
2022-12-12T19:15:48.514Z,159.25
2022-12-12T19:17:25.694Z,169.25
2022-12-12T19:19:00.296Z,162.25
2022-12-12T19:20:31.982Z,152.75
2022-12-12T19:22:18.613Z,160.75
2022-12-12T19:23:56.283Z,151.00
2022-12-12T19:25:27.994Z,145.25
2022-12-12T19:26:59.795Z,137.25
2022-12-12T19:28:31.499Z,142.75
2022-12-12T19:30:04.056Z,138.75
2022-12-12T19:31:36.235Z,134.00
2022-12-12T19:33:08.008Z,139.25
2022-12-12T19:34:39.870Z,128.50
2022-12-12T19:36:16.320Z,131.00
2022-12-12T19:37:48.112Z,133.50
2022-12-12T19:39:19.874Z,133.50
2022-12-12T19:40:52.184Z,119.50
2022-12-12T19:42:23.983Z,115.25
2022-12-12T19:43:57.334Z,120.00
2022-12-12T19:45:29.159Z,100.50
2022-12-12T19:47:00.942Z,114.25
2022-12-12T19:48:33.180Z,96.50
2022-12-12T19:50:05.445Z,108.25
2022-12-12T19:51:39.160Z,109.00
2022-12-12T19:53:12.119Z,165.00
2022-12-12T19:54:43.884Z,153.00
2022-12-12T19:56:20.228Z,135.00
2022-12-12T19:57:51.995Z,128.75
2022-12-12T19:59:23.694Z,119.00
2022-12-12T20:00:55.450Z,116.00
2022-12-12T20:02:27.157Z,115.25
2022-12-12T20:04:19.943Z,105.50
2022-12-12T20:05:59.138Z,111.00
2022-12-12T20:07:30.935Z,120.50
2022-12-12T20:09:02.671Z,115.75
2022-12-12T20:10:38.775Z,107.75
2022-12-12T20:12:10.494Z,121.75
2022-12-12T20:13:42.576Z,121.50
2022-12-12T20:15:14.697Z,116.75
2022-12-12T20:16:46.700Z,112.50
2022-12-12T20:18:18.414Z,113.75
2022-12-12T20:19:51.453Z,105.25
2022-12-12T20:21:58.998Z,111.25
2022-12-12T20:23:16.883Z,120.25
2022-12-12T20:24:49.062Z,115.50
2022-12-12T20:26:23.178Z,103.00
2022-12-12T20:27:55.044Z,101.60
2022-12-12T20:29:27.217Z,109.25
2022-12-12T20:31:26.091Z,108.25
2022-12-12T20:32:58.314Z,101.40
2022-12-12T20:34:30.211Z,103.50
2022-12-12T20:36:08.920Z,98.00
2022-12-12T20:37:40.985Z,103.25
2022-12-12T20:39:19.656Z,97.20
2022-12-12T20:40:52.914Z,103.60
2022-12-12T20:42:25.087Z,98.40
2022-12-12T20:43:58.306Z,95.40
2022-12-12T20:45:30.675Z,106.80
2022-12-12T20:47:03.113Z,96.80
2022-12-12T20:48:35.495Z,95.00
2022-12-12T20:50:07.824Z,87.40
2022-12-12T20:51:57.245Z,125.25
2022-12-12T20:53:36.151Z,169.25
2022-12-12T20:55:09.251Z,150.00
2022-12-12T20:56:46.049Z,141.25
2022-12-12T20:58:18.378Z,167.50
2022-12-12T20:59:50.862Z,159.25
2022-12-12T21:01:24.545Z,157.50
2022-12-12T21:02:56.819Z,152.50
2022-12-12T21:04:28.606Z,159.75
2022-12-12T21:06:00.384Z,164.75
2022-12-12T21:07:32.227Z,154.25
2022-12-12T21:09:07.709Z,157.50
2022-12-12T21:10:39.460Z,143.25
2022-12-12T21:12:11.195Z,141.75
2022-12-12T21:13:42.891Z,146.00
2022-12-12T21:15:15.239Z,144.75
2022-12-12T21:16:47.253Z,142.00
2022-12-12T21:18:19.253Z,154.25
2022-12-12T21:19:51.123Z,140.25
2022-12-12T21:21:23.282Z,136.75
2022-12-12T21:22:55.189Z,138.75
2022-12-12T21:24:26.948Z,130.25
2022-12-12T21:26:03.094Z,131.00
2022-12-12T21:27:35.335Z,129.50
2022-12-12T21:29:07.236Z,124.25
2022-12-12T21:30:42.743Z,136.75
2022-12-12T21:32:14.566Z,137.25
2022-12-12T21:33:46.347Z,137.25
2022-12-12T21:35:18.139Z,134.50
2022-12-12T21:36:51.816Z,151.50
2022-12-12T21:38:23.733Z,158.50
2022-12-12T21:39:55.514Z,148.50
2022-12-12T21:41:27.537Z,155.00
2022-12-12T21:42:59.401Z,144.00
2022-12-12T21:44:31.175Z,145.50
2022-12-12T21:46:13.710Z,148.75
2022-12-12T21:47:45.408Z,147.25
2022-12-12T21:49:20.058Z,142.25
2022-12-12T21:50:52.458Z,167.25
2022-12-12T21:52:24.622Z,159.75
2022-12-12T21:53:56.388Z,147.50
2022-12-12T21:55:28.230Z,119.25
2022-12-12T21:57:00.258Z,131.25
2022-12-12T21:58:32.587Z,140.50
2022-12-12T22:00:04.709Z,136.75
2022-12-12T22:01:44.333Z,126.75
2022-12-12T22:03:16.171Z,131.50
2022-12-12T22:04:47.994Z,137.75
2022-12-12T22:06:21.724Z,140.00
2022-12-12T22:07:53.371Z,143.00
2022-12-12T22:09:25.059Z,139.75
2022-12-12T22:10:59.510Z,137.50
2022-12-12T22:12:31.658Z,141.50
2022-12-12T22:14:03.664Z,133.75
2022-12-12T22:15:35.362Z,132.75
2022-12-12T22:17:07.073Z,130.00
2022-12-12T22:18:38.990Z,124.25
2022-12-12T22:20:11.319Z,124.75
2022-12-12T22:21:47.351Z,122.00
2022-12-12T22:23:19.308Z,121.00
2022-12-12T22:24:50.977Z,124.25
2022-12-12T22:26:27.616Z,101.25
2022-12-12T22:27:59.351Z,114.00
2022-12-12T22:29:31.086Z,112.00
2022-12-12T22:31:05.880Z,111.25
2022-12-12T22:32:37.563Z,107.20
2022-12-12T22:34:17.314Z,104.00
2022-12-12T22:35:49.156Z,99.60
2022-12-12T22:37:20.941Z,88.00
2022-12-12T22:38:53.992Z,97.60
2022-12-12T22:40:25.677Z,95.00
2022-12-12T22:41:57.486Z,89.00
2022-12-12T22:43:29.947Z,83.50
2022-12-12T22:45:01.832Z,74.25
2022-12-12T22:46:36.979Z,75.00
2022-12-12T22:48:12.447Z,80.00
2022-12-12T22:49:44.295Z,76.50
2022-12-12T22:51:17.586Z,69.50
2022-12-12T22:52:49.354Z,76.00
2022-12-12T22:54:21.105Z,67.25
2022-12-12T22:55:53.011Z,69.25
2022-12-12T22:57:24.759Z,61.25
2022-12-12T22:58:56.557Z,66.00
2022-12-12T23:00:28.988Z,63.75
2022-12-12T23:02:00.646Z,60.75
2022-12-12T23:03:32.431Z,61.75
2022-12-12T23:05:04.805Z,54.75
2022-12-12T23:06:36.708Z,55.50
2022-12-12T23:08:08.762Z,52.00
2022-12-12T23:09:52.337Z,54.25
2022-12-12T23:11:25.054Z,51.25
2022-12-12T23:12:56.757Z,52.25
2022-12-12T23:14:28.634Z,51.25
2022-12-12T23:16:04.939Z,49.00
2022-12-12T23:17:36.653Z,48.25
2022-12-12T23:19:08.820Z,50.75
2022-12-12T23:20:40.537Z,45.00
2022-12-12T23:22:12.999Z,43.00
2022-12-12T23:23:45.739Z,45.00
2022-12-12T23:25:17.974Z,40.60
2022-12-12T23:26:51.214Z,43.40
2022-12-12T23:28:23.251Z,45.40
2022-12-12T23:29:55.024Z,36.60
2022-12-12T23:31:28.528Z,41.80
2022-12-12T23:33:00.214Z,36.60
2022-12-12T23:34:32.019Z,40.20
